首页
METAR-TAF:

METAR-TAF

机场 :

Greenville Downtown Airport

格林维尔, 南卡罗来纳州, 美国

纬度: 34-50-46N, 经度: 082-20-46W, 海拔: 319米

当前天气观测

该预报发布于34分钟前的13:53 UTC
风速3节,风向西
温度 2°C
湿度 80%
气压 1018 hPa
能見度: 16.1公里
天空无云

METAR: KGMU 261353Z 28003KT 10SM CLR 02/M01 A3005 RMK AO2 SLP180 T00221011

时间: 09:27 (14:27 UTC)

预报

该预报发布于2小时和49分钟前的11:38 UTC
预报有效从26日的 12点(UTC)到 27日的 12点(UTC)
风速3节,风向西北
能見度: 10公里
少量云层高于25000英尺
从 26日的 1700点(UTC)
风速6节,风向西转西南
能見度: 10公里
少量云层高于25000英尺
从 26日的 2300点(UTC)
风速4节,风向西南
能見度: 10公里
多云层高于6000英尺
几率 30%
从 27日的 08点(UTC)到 27日的 12点(UTC)
能見度: 8.0公里
阴天层高于3500英尺
小阵雨, 轻雾

TAF: KGMU 261138Z 2612/2712 31003KT P6SM FEW250 FM261700 25006KT P6SM FEW250 FM262300 22004KT P6SM BKN060 PROB30 2708/2712 5SM -SHRA BR OVC035

超过4000个机场的气象观测和天气预报(METAR&TAF报告)。

可查询的气象台以黄色和红色小点在地图上表示。

将鼠标移到小点上方,可查看气象台名称。

然后点击查看天气观测和预报。

如需切换地图:点击带黑十字的绿色按钮放大地图;点击带横线的绿色按钮缩小地图;或者点击绿色箭头查看邻近地区的地图。


METAR-TAF: